sensor_id;sensor_type;location;lat;lon;timestamp;pressure;altitude;pressure_sealevel;temperature
20289;BMP180;10303;51.960;8.372;2022-12-07T00:01:29;100358.00;;;7.80
20289;BMP180;10303;51.960;8.372;2022-12-07T00:03:59;100360.00;;;7.80
20289;BMP180;10303;51.960;8.372;2022-12-07T00:06:37;100361.00;;;7.80
20289;BMP180;10303;51.960;8.372;2022-12-07T00:09:06;100358.00;;;7.80
20289;BMP180;10303;51.960;8.372;2022-12-07T00:11:33;100356.00;;;7.80
20289;BMP180;10303;51.960;8.372;2022-12-07T00:14:07;100359.00;;;7.80
20289;BMP180;10303;51.960;8.372;2022-12-07T00:16:34;100355.00;;;7.80
20289;BMP180;10303;51.960;8.372;2022-12-07T00:19:01;100345.00;;;7.80
20289;BMP180;10303;51.960;8.372;2022-12-07T00:21:32;100359.00;;;7.90
20289;BMP180;10303;51.960;8.372;2022-12-07T00:23:59;100344.00;;;7.90
20289;BMP180;10303;51.960;8.372;2022-12-07T00:26:32;100336.00;;;7.90
20289;BMP180;10303;51.960;8.372;2022-12-07T00:29:20;100347.00;;;7.90
20289;BMP180;10303;51.960;8.372;2022-12-07T00:31:47;100352.00;;;7.90
20289;BMP180;10303;51.960;8.372;2022-12-07T00:34:20;100352.00;;;8.00
20289;BMP180;10303;51.960;8.372;2022-12-07T00:36:46;100334.00;;;8.00
20289;BMP180;10303;51.960;8.372;2022-12-07T00:39:13;100342.00;;;8.00
20289;BMP180;10303;51.960;8.372;2022-12-07T00:41:39;100343.00;;;8.00
20289;BMP180;10303;51.960;8.372;2022-12-07T00:44:05;100332.00;;;8.00
20289;BMP180;10303;51.960;8.372;2022-12-07T00:46:31;100352.00;;;8.00
20289;BMP180;10303;51.960;8.372;2022-12-07T00:48:57;100339.00;;;8.00
20289;BMP180;10303;51.960;8.372;2022-12-07T00:51:25;100338.00;;;8.00
20289;BMP180;10303;51.960;8.372;2022-12-07T00:53:52;100337.00;;;8.00
20289;BMP180;10303;51.960;8.372;2022-12-07T00:56:24;100321.00;;;8.00
20289;BMP180;10303;51.960;8.372;2022-12-07T00:59:00;100316.00;;;8.00
20289;BMP180;10303;51.960;8.372;2022-12-07T01:01:31;100311.00;;;8.00
20289;BMP180;10303;51.960;8.372;2022-12-07T01:03:58;100314.00;;;8.00
20289;BMP180;10303;51.960;8.372;2022-12-07T01:06:27;100331.00;;;8.00
20289;BMP180;10303;51.960;8.372;2022-12-07T01:08:54;100319.00;;;8.00
20289;BMP180;10303;51.960;8.372;2022-12-07T01:11:24;100321.00;;;8.00
20289;BMP180;10303;51.960;8.372;2022-12-07T01:13:55;100332.00;;;8.00
20289;BMP180;10303;51.960;8.372;2022-12-07T01:16:25;100326.00;;;8.00
20289;BMP180;10303;51.960;8.372;2022-12-07T01:18:55;100342.00;;;8.00
20289;BMP180;10303;51.960;8.372;2022-12-07T01:21:28;100335.00;;;8.00
20289;BMP180;10303;51.960;8.372;2022-12-07T01:23:57;100335.00;;;8.00
20289;BMP180;10303;51.960;8.372;2022-12-07T01:26:25;100332.00;;;8.10
20289;BMP180;10303;51.960;8.372;2022-12-07T01:28:52;100335.00;;;8.10
20289;BMP180;10303;51.960;8.372;2022-12-07T01:31:23;100344.00;;;8.10
20289;BMP180;10303;51.960;8.372;2022-12-07T01:33:54;100343.00;;;8.10
20289;BMP180;10303;51.960;8.372;2022-12-07T01:36:21;100342.00;;;8.10
20289;BMP180;10303;51.960;8.372;2022-12-07T01:38:51;100335.00;;;8.10
20289;BMP180;10303;51.960;8.372;2022-12-07T01:41:21;100345.00;;;8.10
20289;BMP180;10303;51.960;8.372;2022-12-07T01:44:26;100352.00;;;8.10
20289;BMP180;10303;51.960;8.372;2022-12-07T01:46:58;100356.00;;;8.10
20289;BMP180;10303;51.960;8.372;2022-12-07T01:49:41;100349.00;;;8.10
20289;BMP180;10303;51.960;8.372;2022-12-07T01:52:26;100343.00;;;8.10
20289;BMP180;10303;51.960;8.372;2022-12-07T01:55:02;100344.00;;;8.10
20289;BMP180;10303;51.960;8.372;2022-12-07T01:57:32;100325.00;;;8.10
20289;BMP180;10303;51.960;8.372;2022-12-07T02:00:01;100341.00;;;8.10
20289;BMP180;10303;51.960;8.372;2022-12-07T02:02:47;100340.00;;;8.10
20289;BMP180;10303;51.960;8.372;2022-12-07T02:05:15;100335.00;;;8.10
20289;BMP180;10303;51.960;8.372;2022-12-07T02:07:42;100324.00;;;8.10
20289;BMP180;10303;51.960;8.372;2022-12-07T02:10:27;100335.00;;;8.10
20289;BMP180;10303;51.960;8.372;2022-12-07T02:13:12;100330.00;;;8.10
20289;BMP180;10303;51.960;8.372;2022-12-07T02:15:47;100325.00;;;8.10
20289;BMP180;10303;51.960;8.372;2022-12-07T02:21:53;100322.00;;;8.00
20289;BMP180;10303;51.960;8.372;2022-12-07T02:30:03;100332.00;;;8.00
20289;BMP180;10303;51.960;8.372;2022-12-07T02:35:28;100324.00;;;8.00
20289;BMP180;10303;51.960;8.372;2022-12-07T02:40:55;100332.00;;;8.00
20289;BMP180;10303;51.960;8.372;2022-12-07T02:43:37;100324.00;;;8.00
20289;BMP180;10303;51.960;8.372;2022-12-07T02:46:40;100307.00;;;8.00
20289;BMP180;10303;51.960;8.372;2022-12-07T02:49:06;100305.00;;;8.00
20289;BMP180;10303;51.960;8.372;2022-12-07T02:51:33;100313.00;;;8.00
20289;BMP180;10303;51.960;8.372;2022-12-07T02:54:00;100306.00;;;7.90
20289;BMP180;10303;51.960;8.372;2022-12-07T03:13:50;100310.00;;;7.90
20289;BMP180;10303;51.960;8.372;2022-12-07T03:19:04;100322.00;;;7.90
20289;BMP180;10303;51.960;8.372;2022-12-07T03:21:41;100331.00;;;7.90
20289;BMP180;10303;51.960;8.372;2022-12-07T03:24:18;100317.00;;;7.90
20289;BMP180;10303;51.960;8.372;2022-12-07T03:26:52;100306.00;;;7.90
20289;BMP180;10303;51.960;8.372;2022-12-07T03:29:30;100308.00;;;7.90
20289;BMP180;10303;51.960;8.372;2022-12-07T03:32:15;100320.00;;;7.90
20289;BMP180;10303;51.960;8.372;2022-12-07T03:35:23;100297.00;;;7.80
20289;BMP180;10303;51.960;8.372;2022-12-07T03:38:20;100293.00;;;7.80
20289;BMP180;10303;51.960;8.372;2022-12-07T03:41:13;100294.00;;;7.70
20289;BMP180;10303;51.960;8.372;2022-12-07T03:43:41;100303.00;;;7.70
20289;BMP180;10303;51.960;8.372;2022-12-07T03:49:51;100297.00;;;7.50
20289;BMP180;10303;51.960;8.372;2022-12-07T03:55:18;100298.00;;;7.50
20289;BMP180;10303;51.960;8.372;2022-12-07T03:57:49;100307.00;;;7.50
20289;BMP180;10303;51.960;8.372;2022-12-07T04:00:18;100300.00;;;7.50
20289;BMP180;10303;51.960;8.372;2022-12-07T04:02:44;100290.00;;;7.40
20289;BMP180;10303;51.960;8.372;2022-12-07T04:05:11;100296.00;;;7.40
20289;BMP180;10303;51.960;8.372;2022-12-07T04:07:38;100302.00;;;7.40
20289;BMP180;10303;51.960;8.372;2022-12-07T04:10:05;100291.00;;;7.40
20289;BMP180;10303;51.960;8.372;2022-12-07T04:12:31;100297.00;;;7.40
20289;BMP180;10303;51.960;8.372;2022-12-07T04:14:57;100300.00;;;7.40
20289;BMP180;10303;51.960;8.372;2022-12-07T04:17:23;100301.00;;;7.40
20289;BMP180;10303;51.960;8.372;2022-12-07T04:19:49;100303.00;;;7.30
20289;BMP180;10303;51.960;8.372;2022-12-07T04:22:15;100312.00;;;7.30
20289;BMP180;10303;51.960;8.372;2022-12-07T04:24:41;100307.00;;;7.30
20289;BMP180;10303;51.960;8.372;2022-12-07T04:27:07;100299.00;;;7.30
20289;BMP180;10303;51.960;8.372;2022-12-07T04:29:33;100308.00;;;7.30
20289;BMP180;10303;51.960;8.372;2022-12-07T04:31:59;100296.00;;;7.30
20289;BMP180;10303;51.960;8.372;2022-12-07T04:34:25;100296.00;;;7.30
20289;BMP180;10303;51.960;8.372;2022-12-07T04:36:52;100304.00;;;7.30
20289;BMP180;10303;51.960;8.372;2022-12-07T04:39:25;100298.00;;;7.30
20289;BMP180;10303;51.960;8.372;2022-12-07T04:41:53;100318.00;;;7.30
20289;BMP180;10303;51.960;8.372;2022-12-07T04:44:20;100311.00;;;7.20
20289;BMP180;10303;51.960;8.372;2022-12-07T04:46:46;100307.00;;;7.20
20289;BMP180;10303;51.960;8.372;2022-12-07T04:49:13;100313.00;;;7.10
20289;BMP180;10303;51.960;8.372;2022-12-07T04:51:41;100300.00;;;7.20
20289;BMP180;10303;51.960;8.372;2022-12-07T04:54:08;100314.00;;;7.20
20289;BMP180;10303;51.960;8.372;2022-12-07T04:56:34;100308.00;;;7.10
20289;BMP180;10303;51.960;8.372;2022-12-07T04:59:02;100308.00;;;7.00
20289;BMP180;10303;51.960;8.372;2022-12-07T05:01:29;100309.00;;;7.00
20289;BMP180;10303;51.960;8.372;2022-12-07T05:03:55;100293.00;;;7.00
20289;BMP180;10303;51.960;8.372;2022-12-07T05:06:21;100290.00;;;6.90
20289;BMP180;10303;51.960;8.372;2022-12-07T05:08:47;100311.00;;;6.90
20289;BMP180;10303;51.960;8.372;2022-12-07T05:11:15;100307.00;;;6.90
20289;BMP180;10303;51.960;8.372;2022-12-07T05:14:03;100309.00;;;6.90
20289;BMP180;10303;51.960;8.372;2022-12-07T05:16:30;100288.00;;;6.90
20289;BMP180;10303;51.960;8.372;2022-12-07T05:18:56;100286.00;;;6.80
20289;BMP180;10303;51.960;8.372;2022-12-07T05:21:23;100310.00;;;6.80
20289;BMP180;10303;51.960;8.372;2022-12-07T05:23:49;100299.00;;;6.80
20289;BMP180;10303;51.960;8.372;2022-12-07T05:26:15;100306.00;;;6.80
20289;BMP180;10303;51.960;8.372;2022-12-07T05:28:43;100297.00;;;6.80
20289;BMP180;10303;51.960;8.372;2022-12-07T05:31:10;100297.00;;;6.80
20289;BMP180;10303;51.960;8.372;2022-12-07T05:33:36;100312.00;;;6.70
20289;BMP180;10303;51.960;8.372;2022-12-07T05:36:02;100303.00;;;6.70
20289;BMP180;10303;51.960;8.372;2022-12-07T05:38:34;100300.00;;;6.70
20289;BMP180;10303;51.960;8.372;2022-12-07T05:41:06;100290.00;;;6.60
20289;BMP180;10303;51.960;8.372;2022-12-07T05:43:33;100301.00;;;6.70
20289;BMP180;10303;51.960;8.372;2022-12-07T05:46:00;100283.00;;;6.70
20289;BMP180;10303;51.960;8.372;2022-12-07T05:48:26;100286.00;;;6.60
20289;BMP180;10303;51.960;8.372;2022-12-07T05:50:53;100284.00;;;6.70
20289;BMP180;10303;51.960;8.372;2022-12-07T05:53:19;100280.00;;;6.60
20289;BMP180;10303;51.960;8.372;2022-12-07T05:55:45;100288.00;;;6.60
20289;BMP180;10303;51.960;8.372;2022-12-07T05:58:11;100289.00;;;6.70
20289;BMP180;10303;51.960;8.372;2022-12-07T06:00:56;100288.00;;;6.60
20289;BMP180;10303;51.960;8.372;2022-12-07T06:03:22;100283.00;;;6.60
20289;BMP180;10303;51.960;8.372;2022-12-07T06:05:52;100299.00;;;6.60
20289;BMP180;10303;51.960;8.372;2022-12-07T06:08:19;100291.00;;;6.60
20289;BMP180;10303;51.960;8.372;2022-12-07T06:10:47;100286.00;;;6.60
20289;BMP180;10303;51.960;8.372;2022-12-07T06:13:33;100286.00;;;6.60
20289;BMP180;10303;51.960;8.372;2022-12-07T06:15:59;100283.00;;;6.60
20289;BMP180;10303;51.960;8.372;2022-12-07T06:18:25;100286.00;;;6.50
20289;BMP180;10303;51.960;8.372;2022-12-07T06:20:51;100293.00;;;6.50
20289;BMP180;10303;51.960;8.372;2022-12-07T06:23:17;100292.00;;;6.50
20289;BMP180;10303;51.960;8.372;2022-12-07T06:25:45;100292.00;;;6.50
20289;BMP180;10303;51.960;8.372;2022-12-07T06:28:11;100292.00;;;6.50
20289;BMP180;10303;51.960;8.372;2022-12-07T06:30:37;100290.00;;;6.50
20289;BMP180;10303;51.960;8.372;2022-12-07T06:33:03;100294.00;;;6.40
20289;BMP180;10303;51.960;8.372;2022-12-07T06:35:29;100280.00;;;6.50
20289;BMP180;10303;51.960;8.372;2022-12-07T06:37:57;100287.00;;;6.40
20289;BMP180;10303;51.960;8.372;2022-12-07T06:40:23;100287.00;;;6.40
20289;BMP180;10303;51.960;8.372;2022-12-07T06:42:49;100285.00;;;6.50
20289;BMP180;10303;51.960;8.372;2022-12-07T06:45:15;100287.00;;;6.40
20289;BMP180;10303;51.960;8.372;2022-12-07T06:47:41;100279.00;;;6.50
20289;BMP180;10303;51.960;8.372;2022-12-07T06:50:07;100281.00;;;6.40
20289;BMP180;10303;51.960;8.372;2022-12-07T06:52:34;100285.00;;;6.40
20289;BMP180;10303;51.960;8.372;2022-12-07T06:55:00;100294.00;;;6.40
20289;BMP180;10303;51.960;8.372;2022-12-07T06:57:26;100278.00;;;6.40
20289;BMP180;10303;51.960;8.372;2022-12-07T06:59:52;100287.00;;;6.40
20289;BMP180;10303;51.960;8.372;2022-12-07T07:02:18;100298.00;;;6.30
20289;BMP180;10303;51.960;8.372;2022-12-07T07:04:44;100300.00;;;6.30
20289;BMP180;10303;51.960;8.372;2022-12-07T07:07:11;100303.00;;;6.30
20289;BMP180;10303;51.960;8.372;2022-12-07T07:09:37;100307.00;;;6.20
20289;BMP180;10303;51.960;8.372;2022-12-07T07:12:03;100301.00;;;6.20
20289;BMP180;10303;51.960;8.372;2022-12-07T07:14:29;100300.00;;;6.20
20289;BMP180;10303;51.960;8.372;2022-12-07T07:16:55;100304.00;;;6.20
20289;BMP180;10303;51.960;8.372;2022-12-07T07:19:21;100304.00;;;6.20
20289;BMP180;10303;51.960;8.372;2022-12-07T07:21:47;100301.00;;;6.20
20289;BMP180;10303;51.960;8.372;2022-12-07T07:24:13;100299.00;;;6.10
20289;BMP180;10303;51.960;8.372;2022-12-07T07:26:39;100311.00;;;6.10
20289;BMP180;10303;51.960;8.372;2022-12-07T07:29:05;100309.00;;;6.20
20289;BMP180;10303;51.960;8.372;2022-12-07T07:31:31;100315.00;;;6.10
20289;BMP180;10303;51.960;8.372;2022-12-07T07:33:57;100311.00;;;6.20
20289;BMP180;10303;51.960;8.372;2022-12-07T07:36:23;100305.00;;;6.20
20289;BMP180;10303;51.960;8.372;2022-12-07T07:38:49;100325.00;;;6.10
20289;BMP180;10303;51.960;8.372;2022-12-07T07:41:15;100324.00;;;6.10
20289;BMP180;10303;51.960;8.372;2022-12-07T07:43:41;100335.00;;;6.00
20289;BMP180;10303;51.960;8.372;2022-12-07T07:46:07;100323.00;;;6.10
20289;BMP180;10303;51.960;8.372;2022-12-07T07:48:33;100335.00;;;6.00
20289;BMP180;10303;51.960;8.372;2022-12-07T07:50:59;100333.00;;;6.10
20289;BMP180;10303;51.960;8.372;2022-12-07T07:53:25;100324.00;;;6.10
20289;BMP180;10303;51.960;8.372;2022-12-07T07:55:53;100334.00;;;6.10
20289;BMP180;10303;51.960;8.372;2022-12-07T07:58:19;100326.00;;;6.10
20289;BMP180;10303;51.960;8.372;2022-12-07T08:00:45;100338.00;;;6.10
20289;BMP180;10303;51.960;8.372;2022-12-07T08:03:11;100335.00;;;6.00
20289;BMP180;10303;51.960;8.372;2022-12-07T08:05:38;100341.00;;;6.00
20289;BMP180;10303;51.960;8.372;2022-12-07T08:08:04;100333.00;;;6.00
20289;BMP180;10303;51.960;8.372;2022-12-07T08:10:30;100319.00;;;6.00
20289;BMP180;10303;51.960;8.372;2022-12-07T08:12:58;100334.00;;;6.00
20289;BMP180;10303;51.960;8.372;2022-12-07T08:15:38;100335.00;;;6.00
20289;BMP180;10303;51.960;8.372;2022-12-07T08:18:05;100312.00;;;6.00
20289;BMP180;10303;51.960;8.372;2022-12-07T08:20:33;100343.00;;;6.10
20289;BMP180;10303;51.960;8.372;2022-12-07T08:23:00;100334.00;;;6.10
20289;BMP180;10303;51.960;8.372;2022-12-07T08:25:28;100336.00;;;6.00
20289;BMP180;10303;51.960;8.372;2022-12-07T08:27:54;100336.00;;;6.00
20289;BMP180;10303;51.960;8.372;2022-12-07T08:30:21;100343.00;;;6.00
20289;BMP180;10303;51.960;8.372;2022-12-07T08:32:48;100341.00;;;6.00
20289;BMP180;10303;51.960;8.372;2022-12-07T08:35:14;100339.00;;;6.00
20289;BMP180;10303;51.960;8.372;2022-12-07T08:37:41;100335.00;;;6.00
20289;BMP180;10303;51.960;8.372;2022-12-07T08:40:10;100340.00;;;6.00
20289;BMP180;10303;51.960;8.372;2022-12-07T08:42:36;100342.00;;;6.00
20289;BMP180;10303;51.960;8.372;2022-12-07T08:45:12;100325.00;;;6.00
20289;BMP180;10303;51.960;8.372;2022-12-07T08:47:53;100324.00;;;6.10
20289;BMP180;10303;51.960;8.372;2022-12-07T08:50:21;100333.00;;;6.10
20289;BMP180;10303;51.960;8.372;2022-12-07T08:52:56;100340.00;;;6.20
20289;BMP180;10303;51.960;8.372;2022-12-07T08:55:23;100341.00;;;6.20
20289;BMP180;10303;51.960;8.372;2022-12-07T08:57:50;100338.00;;;6.30
20289;BMP180;10303;51.960;8.372;2022-12-07T09:00:17;100326.00;;;6.40
20289;BMP180;10303;51.960;8.372;2022-12-07T09:02:45;100339.00;;;6.40
20289;BMP180;10303;51.960;8.372;2022-12-07T09:05:11;100335.00;;;6.50
20289;BMP180;10303;51.960;8.372;2022-12-07T09:07:38;100332.00;;;6.50
20289;BMP180;10303;51.960;8.372;2022-12-07T09:10:05;100343.00;;;6.50
20289;BMP180;10303;51.960;8.372;2022-12-07T09:12:32;100333.00;;;6.50
20289;BMP180;10303;51.960;8.372;2022-12-07T09:14:57;100337.00;;;6.60
20289;BMP180;10303;51.960;8.372;2022-12-07T09:17:24;100340.00;;;6.50
20289;BMP180;10303;51.960;8.372;2022-12-07T09:19:50;100325.00;;;6.60
20289;BMP180;10303;51.960;8.372;2022-12-07T09:22:16;100335.00;;;6.60
20289;BMP180;10303;51.960;8.372;2022-12-07T09:24:42;100335.00;;;6.60
20289;BMP180;10303;51.960;8.372;2022-12-07T09:27:09;100338.00;;;6.70
20289;BMP180;10303;51.960;8.372;2022-12-07T09:29:35;100337.00;;;6.70
20289;BMP180;10303;51.960;8.372;2022-12-07T09:32:00;100342.00;;;6.70
20289;BMP180;10303;51.960;8.372;2022-12-07T09:34:26;100342.00;;;6.80
20289;BMP180;10303;51.960;8.372;2022-12-07T09:36:52;100352.00;;;6.80
20289;BMP180;10303;51.960;8.372;2022-12-07T09:39:19;100339.00;;;6.80
20289;BMP180;10303;51.960;8.372;2022-12-07T09:41:45;100355.00;;;6.90
20289;BMP180;10303;51.960;8.372;2022-12-07T09:44:18;100351.00;;;6.90
20289;BMP180;10303;51.960;8.372;2022-12-07T09:46:46;100340.00;;;6.90
20289;BMP180;10303;51.960;8.372;2022-12-07T09:49:18;100349.00;;;6.80
20289;BMP180;10303;51.960;8.372;2022-12-07T09:51:46;100346.00;;;6.90
20289;BMP180;10303;51.960;8.372;2022-12-07T09:54:16;100338.00;;;6.90
20289;BMP180;10303;51.960;8.372;2022-12-07T09:56:43;100340.00;;;7.00
20289;BMP180;10303;51.960;8.372;2022-12-07T09:59:16;100334.00;;;7.00
20289;BMP180;10303;51.960;8.372;2022-12-07T10:01:49;100331.00;;;7.10
20289;BMP180;10303;51.960;8.372;2022-12-07T10:04:20;100335.00;;;7.10
20289;BMP180;10303;51.960;8.372;2022-12-07T10:06:48;100332.00;;;7.10
20289;BMP180;10303;51.960;8.372;2022-12-07T10:09:19;100335.00;;;7.10
20289;BMP180;10303;51.960;8.372;2022-12-07T10:12:10;100332.00;;;7.10
20289;BMP180;10303;51.960;8.372;2022-12-07T10:15:00;100334.00;;;7.20
20289;BMP180;10303;51.960;8.372;2022-12-07T10:17:41;100330.00;;;7.20
20289;BMP180;10303;51.960;8.372;2022-12-07T10:20:26;100335.00;;;7.20
20289;BMP180;10303;51.960;8.372;2022-12-07T10:23:07;100321.00;;;7.30
20289;BMP180;10303;51.960;8.372;2022-12-07T10:25:39;100315.00;;;7.30
20289;BMP180;10303;51.960;8.372;2022-12-07T10:28:18;100320.00;;;7.30
20289;BMP180;10303;51.960;8.372;2022-12-07T10:31:15;100317.00;;;7.30
20289;BMP180;10303;51.960;8.372;2022-12-07T10:33:58;100330.00;;;7.40
20289;BMP180;10303;51.960;8.372;2022-12-07T10:36:38;100321.00;;;7.40
20289;BMP180;10303;51.960;8.372;2022-12-07T10:39:11;100316.00;;;7.50
20289;BMP180;10303;51.960;8.372;2022-12-07T10:42:01;100308.00;;;7.50
20289;BMP180;10303;51.960;8.372;2022-12-07T10:44:34;100305.00;;;7.60
20289;BMP180;10303;51.960;8.372;2022-12-07T10:47:19;100290.00;;;7.90
20289;BMP180;10303;51.960;8.372;2022-12-07T10:56:31;100288.00;;;8.60
20289;BMP180;10303;51.960;8.372;2022-12-07T11:07:27;100293.00;;;8.40
20289;BMP180;10303;51.960;8.372;2022-12-07T11:13:32;100289.00;;;8.20
20289;BMP180;10303;51.960;8.372;2022-12-07T11:21:57;100272.00;;;8.10
20289;BMP180;10303;51.960;8.372;2022-12-07T11:24:52;100278.00;;;8.20
20289;BMP180;10303;51.960;8.372;2022-12-07T11:38:57;100263.00;;;8.20
20289;BMP180;10303;51.960;8.372;2022-12-07T11:41:31;100260.00;;;8.20
20289;BMP180;10303;51.960;8.372;2022-12-07T11:44:07;100251.00;;;8.30
20289;BMP180;10303;51.960;8.372;2022-12-07T11:47:11;100242.00;;;8.30
20289;BMP180;10303;51.960;8.372;2022-12-07T11:50:21;100256.00;;;8.50
20289;BMP180;10303;51.960;8.372;2022-12-07T11:53:25;100247.00;;;8.70
20289;BMP180;10303;51.960;8.372;2022-12-07T11:58:57;100249.00;;;8.70
20289;BMP180;10303;51.960;8.372;2022-12-07T12:06:43;100234.00;;;8.60
20289;BMP180;10303;51.960;8.372;2022-12-07T12:09:23;100230.00;;;8.60
20289;BMP180;10303;51.960;8.372;2022-12-07T12:15:16;100226.00;;;8.80
20289;BMP180;10303;51.960;8.372;2022-12-07T12:21:06;100224.00;;;8.70
20289;BMP180;10303;51.960;8.372;2022-12-07T12:23:51;100219.00;;;8.70
20289;BMP180;10303;51.960;8.372;2022-12-07T12:26:24;100227.00;;;8.70
20289;BMP180;10303;51.960;8.372;2022-12-07T12:31:30;100218.00;;;8.80
20289;BMP180;10303;51.960;8.372;2022-12-07T12:34:29;100213.00;;;8.80
20289;BMP180;10303;51.960;8.372;2022-12-07T12:36:50;100222.00;;;8.70
20289;BMP180;10303;51.960;8.372;2022-12-07T12:39:17;100208.00;;;8.70
20289;BMP180;10303;51.960;8.372;2022-12-07T12:47:03;100211.00;;;8.60
20289;BMP180;10303;51.960;8.372;2022-12-07T12:49:43;100204.00;;;8.70
20289;BMP180;10303;51.960;8.372;2022-12-07T12:57:36;100201.00;;;8.60
20289;BMP180;10303;51.960;8.372;2022-12-07T13:00:23;100189.00;;;8.60
20289;BMP180;10303;51.960;8.372;2022-12-07T13:02:55;100195.00;;;8.70
20289;BMP180;10303;51.960;8.372;2022-12-07T13:05:27;100196.00;;;8.60
20289;BMP180;10303;51.960;8.372;2022-12-07T13:08:17;100188.00;;;8.60
20289;BMP180;10303;51.960;8.372;2022-12-07T13:10:47;100195.00;;;8.60
20289;BMP180;10303;51.960;8.372;2022-12-07T13:18:41;100207.00;;;8.50
20289;BMP180;10303;51.960;8.372;2022-12-07T13:29:18;100194.00;;;8.40
20289;BMP180;10303;51.960;8.372;2022-12-07T13:31:56;100189.00;;;8.40
20289;BMP180;10303;51.960;8.372;2022-12-07T13:34:37;100182.00;;;8.40
20289;BMP180;10303;51.960;8.372;2022-12-07T13:37:27;100176.00;;;8.50
20289;BMP180;10303;51.960;8.372;2022-12-07T13:40:00;100179.00;;;8.50
20289;BMP180;10303;51.960;8.372;2022-12-07T13:42:34;100164.00;;;8.50
20289;BMP180;10303;51.960;8.372;2022-12-07T13:45:28;100168.00;;;8.40
20289;BMP180;10303;51.960;8.372;2022-12-07T13:50:41;100158.00;;;8.40
20289;BMP180;10303;51.960;8.372;2022-12-07T13:53:13;100168.00;;;8.40
20289;BMP180;10303;51.960;8.372;2022-12-07T13:55:46;100173.00;;;8.40
20289;BMP180;10303;51.960;8.372;2022-12-07T13:58:12;100163.00;;;8.40
20289;BMP180;10303;51.960;8.372;2022-12-07T14:00:41;100165.00;;;8.50
20289;BMP180;10303;51.960;8.372;2022-12-07T14:05:43;100162.00;;;8.50
20289;BMP180;10303;51.960;8.372;2022-12-07T14:10:40;100169.00;;;8.60
20289;BMP180;10303;51.960;8.372;2022-12-07T14:13:38;100162.00;;;8.60
20289;BMP180;10303;51.960;8.372;2022-12-07T14:18:51;100152.00;;;8.50
20289;BMP180;10303;51.960;8.372;2022-12-07T14:21:22;100153.00;;;8.50
20289;BMP180;10303;51.960;8.372;2022-12-07T14:24:11;100159.00;;;8.50
20289;BMP180;10303;51.960;8.372;2022-12-07T14:26:39;100155.00;;;8.40
20289;BMP180;10303;51.960;8.372;2022-12-07T14:31:52;100151.00;;;8.30
20289;BMP180;10303;51.960;8.372;2022-12-07T14:34:23;100136.00;;;8.20
20289;BMP180;10303;51.960;8.372;2022-12-07T14:36:50;100140.00;;;8.20
20289;BMP180;10303;51.960;8.372;2022-12-07T14:39:16;100136.00;;;8.10
20289;BMP180;10303;51.960;8.372;2022-12-07T14:41:42;100145.00;;;8.10
20289;BMP180;10303;51.960;8.372;2022-12-07T14:44:23;100146.00;;;8.10
20289;BMP180;10303;51.960;8.372;2022-12-07T14:46:52;100143.00;;;8.10
20289;BMP180;10303;51.960;8.372;2022-12-07T14:49:19;100135.00;;;8.10
20289;BMP180;10303;51.960;8.372;2022-12-07T14:51:46;100133.00;;;8.00
20289;BMP180;10303;51.960;8.372;2022-12-07T14:54:19;100136.00;;;8.00
20289;BMP180;10303;51.960;8.372;2022-12-07T14:56:46;100137.00;;;8.00
20289;BMP180;10303;51.960;8.372;2022-12-07T14:59:18;100140.00;;;7.90
20289;BMP180;10303;51.960;8.372;2022-12-07T15:01:45;100143.00;;;7.90
20289;BMP180;10303;51.960;8.372;2022-12-07T15:04:11;100136.00;;;7.80
20289;BMP180;10303;51.960;8.372;2022-12-07T15:06:37;100136.00;;;7.80
20289;BMP180;10303;51.960;8.372;2022-12-07T15:09:04;100141.00;;;7.80
20289;BMP180;10303;51.960;8.372;2022-12-07T15:11:30;100130.00;;;7.80
20289;BMP180;10303;51.960;8.372;2022-12-07T15:13:56;100134.00;;;7.80
20289;BMP180;10303;51.960;8.372;2022-12-07T15:16:36;100140.00;;;7.90
20289;BMP180;10303;51.960;8.372;2022-12-07T15:19:03;100141.00;;;7.90
20289;BMP180;10303;51.960;8.372;2022-12-07T15:21:29;100138.00;;;7.90
20289;BMP180;10303;51.960;8.372;2022-12-07T15:23:55;100142.00;;;7.90
20289;BMP180;10303;51.960;8.372;2022-12-07T15:26:21;100143.00;;;7.90
20289;BMP180;10303;51.960;8.372;2022-12-07T15:28:47;100145.00;;;7.90
20289;BMP180;10303;51.960;8.372;2022-12-07T15:31:15;100133.00;;;7.90
20289;BMP180;10303;51.960;8.372;2022-12-07T15:33:42;100137.00;;;7.90
20289;BMP180;10303;51.960;8.372;2022-12-07T15:36:18;100130.00;;;7.80
20289;BMP180;10303;51.960;8.372;2022-12-07T15:38:46;100135.00;;;7.80
20289;BMP180;10303;51.960;8.372;2022-12-07T15:41:12;100129.00;;;7.90
20289;BMP180;10303;51.960;8.372;2022-12-07T15:43:38;100124.00;;;7.90
20289;BMP180;10303;51.960;8.372;2022-12-07T15:46:41;100135.00;;;7.80
20289;BMP180;10303;51.960;8.372;2022-12-07T15:49:18;100125.00;;;7.80
20289;BMP180;10303;51.960;8.372;2022-12-07T15:51:45;100124.00;;;7.80
20289;BMP180;10303;51.960;8.372;2022-12-07T15:54:26;100119.00;;;7.80
20289;BMP180;10303;51.960;8.372;2022-12-07T15:56:53;100134.00;;;7.80
20289;BMP180;10303;51.960;8.372;2022-12-07T15:59:20;100124.00;;;7.80
20289;BMP180;10303;51.960;8.372;2022-12-07T16:01:46;100120.00;;;7.80
20289;BMP180;10303;51.960;8.372;2022-12-07T16:04:13;100118.00;;;7.70
20289;BMP180;10303;51.960;8.372;2022-12-07T16:06:39;100119.00;;;7.70
20289;BMP180;10303;51.960;8.372;2022-12-07T16:09:06;100111.00;;;7.70
20289;BMP180;10303;51.960;8.372;2022-12-07T16:11:32;100121.00;;;7.70
20289;BMP180;10303;51.960;8.372;2022-12-07T16:13:58;100117.00;;;7.70
20289;BMP180;10303;51.960;8.372;2022-12-07T16:16:25;100111.00;;;7.70
20289;BMP180;10303;51.960;8.372;2022-12-07T16:18:52;100116.00;;;7.60
20289;BMP180;10303;51.960;8.372;2022-12-07T16:21:18;100113.00;;;7.60
20289;BMP180;10303;51.960;8.372;2022-12-07T16:23:44;100112.00;;;7.60
20289;BMP180;10303;51.960;8.372;2022-12-07T16:26:18;100109.00;;;7.50
20289;BMP180;10303;51.960;8.372;2022-12-07T16:28:48;100115.00;;;7.50
20289;BMP180;10303;51.960;8.372;2022-12-07T16:31:17;100112.00;;;7.50
20289;BMP180;10303;51.960;8.372;2022-12-07T16:33:45;100112.00;;;7.50
20289;BMP180;10303;51.960;8.372;2022-12-07T16:36:13;100100.00;;;7.50
20289;BMP180;10303;51.960;8.372;2022-12-07T16:38:42;100113.00;;;7.50
20289;BMP180;10303;51.960;8.372;2022-12-07T16:41:10;100108.00;;;7.40
20289;BMP180;10303;51.960;8.372;2022-12-07T16:43:37;100108.00;;;7.50